Time;durP1;ratioP1;P1;durP2;ratioP2;P2;SDS_P1;SDS_P2;PMS_P1;PMS_P2;Temp;Humidity;BMP_temperature;BMP_pressure;BME280_temperature;BME280_humidity;BME280_pressure;Samples;Min_cycle;Max_cycle;Signal;HPM_P1;HPM_P2
2023/06/28 00:01:23;;;;;;;19.52;18.05;;;21.70;93.70;;;;;;5011418;28;20049;-75
2023/06/28 00:03:49;;;;;;;20.55;19.15;;;21.60;93.50;;;;;;5012191;28;20382;-76
2023/06/28 00:06:15;;;;;;;19.45;17.92;;;21.60;93.60;;;;;;5012037;28;20037;-75
2023/06/28 00:08:41;;;;;;;20.70;19.40;;;21.60;93.70;;;;;;5012330;28;20395;-76
2023/06/28 00:11:08;;;;;;;21.35;19.60;;;21.40;93.60;;;;;;5011936;28;20030;-75
2023/06/28 00:13:34;;;;;;;19.95;18.55;;;21.30;93.80;;;;;;5011891;28;20033;-75
2023/06/28 00:16:00;;;;;;;18.88;17.35;;;21.20;94.30;;;;;;5017249;28;20445;-75
2023/06/28 00:18:29;;;;;;;16.98;15.73;;;21.00;94.00;;;;;;5031703;28;20033;-75
2023/06/28 00:20:56;;;;;;;18.75;17.35;;;21.00;94.00;;;;;;5024621;28;20483;-75
2023/06/28 00:23:22;;;;;;;18.08;16.52;;;21.10;94.10;;;;;;5010534;28;20037;-74
2023/06/28 00:25:48;;;;;;;18.23;16.73;;;21.20;93.90;;;;;;5011771;28;20037;-75
2023/06/28 00:28:14;;;;;;;17.77;16.38;;;21.20;93.90;;;;;;5011692;28;20026;-75
2023/06/28 00:30:40;;;;;;;16.10;15.07;;;21.00;94.10;;;;;;5015329;28;20046;-75
2023/06/28 00:33:06;;;;;;;16.52;15.35;;;20.90;94.50;;;;;;5015440;28;20022;-74
2023/06/28 00:35:32;;;;;;;16.60;15.20;;;20.90;94.60;;;;;;5014991;28;20033;-75
2023/06/28 00:37:58;;;;;;;15.82;14.63;;;20.80;94.70;;;;;;5015954;28;20042;-75
2023/06/28 00:40:25;;;;;;;15.18;13.73;;;20.70;94.70;;;;;;5014973;28;20040;-75
2023/06/28 00:42:51;;;;;;;13.70;12.57;;;20.80;94.60;;;;;;5015062;28;20537;-75
2023/06/28 00:45:17;;;;;;;15.57;14.40;;;21.00;94.50;;;;;;5014440;28;20030;-75
2023/06/28 00:47:43;;;;;;;14.30;13.32;;;21.00;94.30;;;;;;5015059;28;20399;-75
2023/06/28 00:50:09;;;;;;;18.00;16.65;;;21.10;94.30;;;;;;5014682;28;20049;-75
2023/06/28 00:52:35;;;;;;;15.45;14.00;;;21.00;93.90;;;;;;5013864;28;20037;-75
2023/06/28 00:55:02;;;;;;;14.65;13.40;;;21.20;93.90;;;;;;5014972;28;20026;-74
2023/06/28 00:57:28;;;;;;;15.57;14.27;;;21.20;93.90;;;;;;5013217;28;20032;-75
2023/06/28 00:59:54;;;;;;;16.00;14.75;;;21.30;94.00;;;;;;5014939;28;20383;-75
2023/06/28 01:02:20;;;;;;;14.95;13.52;;;21.20;94.00;;;;;;5013015;28;20053;-75
2023/06/28 01:04:46;;;;;;;14.88;13.73;;;21.10;94.20;;;;;;5014713;28;20390;-75
2023/06/28 01:07:13;;;;;;;14.90;13.70;;;21.10;94.20;;;;;;5012920;28;20053;-75
2023/06/28 01:09:39;;;;;;;14.98;13.68;;;20.90;94.30;;;;;;5013512;28;20026;-75
2023/06/28 01:12:06;;;;;;;14.98;13.82;;;20.90;94.40;;;;;;5012853;28;20053;-75
2023/06/28 01:14:32;;;;;;;14.43;13.32;;;20.90;94.30;;;;;;5014496;28;20034;-75
2023/06/28 01:16:58;;;;;;;16.05;14.25;;;20.90;94.30;;;;;;5026197;28;20042;-75
2023/06/28 01:19:25;;;;;;;14.70;13.32;;;20.90;94.30;;;;;;5034258;28;20034;-75
2023/06/28 01:21:58;;;;;;;14.77;13.40;;;21.00;94.30;;;;;;5019923;28;20044;-75
2023/06/28 01:24:24;;;;;;;15.10;13.88;;;21.00;94.30;;;;;;5013306;28;20040;-75
2023/06/28 01:26:54;;;;;;;15.23;13.93;;;21.00;94.30;;;;;;5013845;28;20092;-75
2023/06/28 01:29:24;;;;;;;15.02;13.75;;;21.10;94.30;;;;;;5013073;28;20038;-75
2023/06/28 01:31:54;;;;;;;15.27;13.93;;;21.10;94.30;;;;;;5012430;28;20030;-75
2023/06/28 01:34:22;;;;;;;15.13;14.10;;;21.10;94.50;;;;;;5013026;28;20277;-75
2023/06/28 01:36:48;;;;;;;14.77;13.30;;;21.10;94.60;;;;;;5014231;28;20784;-75
2023/06/28 01:39:15;;;;;;;14.00;12.98;;;21.00;94.90;;;;;;5029254;28;20046;-75
2023/06/28 01:41:41;;;;;;;15.55;12.68;;;21.00;95.00;;;;;;5045201;28;20033;-74
2023/06/28 01:44:07;;;;;;;13.50;12.45;;;20.90;95.10;;;;;;5045741;28;20034;-75
2023/06/28 01:46:34;;;;;;;14.73;13.63;;;21.00;95.20;;;;;;5013638;28;20044;-75
2023/06/28 01:49:00;;;;;;;14.35;13.35;;;21.00;95.20;;;;;;5012799;28;20052;-77
2023/06/28 01:51:26;;;;;;;16.48;15.20;;;21.00;95.30;;;;;;5013821;28;20390;-75
2023/06/28 01:53:53;;;;;;;15.80;14.60;;;21.00;95.20;;;;;;5013747;28;20030;-75
2023/06/28 01:56:19;;;;;;;15.65;14.55;;;21.00;95.10;;;;;;5012706;28;20060;-75
2023/06/28 01:58:45;;;;;;;16.23;15.02;;;21.00;95.30;;;;;;5013272;28;20038;-75
2023/06/28 02:01:11;;;;;;;16.77;15.38;;;21.00;95.20;;;;;;5011388;28;20056;-75
2023/06/28 02:03:38;;;;;;;16.67;15.40;;;20.90;95.10;;;;;;5008268;28;20049;-75
2023/06/28 02:06:04;;;;;;;15.85;14.43;;;20.90;95.10;;;;;;5008557;28;20030;-75
2023/06/28 02:08:30;;;;;;;15.30;14.10;;;20.90;95.30;;;;;;5012478;28;20038;-75
2023/06/28 02:10:56;;;;;;;15.07;13.88;;;20.90;95.40;;;;;;5011788;28;20492;-75
2023/06/28 02:13:22;;;;;;;15.73;14.43;;;20.80;95.30;;;;;;5012089;28;20030;-75
2023/06/28 02:15:48;;;;;;;14.32;13.00;;;20.80;95.20;;;;;;5015442;28;20471;-75
2023/06/28 02:18:16;;;;;;;14.93;13.73;;;20.80;95.10;;;;;;5032038;28;20048;-75
2023/06/28 02:20:43;;;;;;;14.80;13.80;;;20.80;95.20;;;;;;5027025;28;20065;-75
2023/06/28 02:23:10;;;;;;;16.10;14.73;;;20.70;95.20;;;;;;5012272;28;20061;-75
2023/06/28 02:25:36;;;;;;;17.85;16.55;;;20.70;95.30;;;;;;5011716;28;20030;-75
2023/06/28 02:28:02;;;;;;;17.48;16.15;;;20.70;95.30;;;;;;5011915;28;20037;-76
2023/06/28 02:30:28;;;;;;;14.30;13.30;;;20.70;95.50;;;;;;5011294;28;20525;-75
2023/06/28 02:32:54;;;;;;;14.25;13.05;;;20.70;95.70;;;;;;5012153;28;20041;-75
2023/06/28 02:35:20;;;;;;;15.20;14.10;;;20.60;95.70;;;;;;5011382;28;20037;-75
2023/06/28 02:37:46;;;;;;;12.65;11.75;;;20.60;95.60;;;;;;5012701;28;20451;-75
2023/06/28 02:40:14;;;;;;;11.70;10.70;;;20.60;95.70;;;;;;5012507;28;20030;-74
2023/06/28 02:42:40;;;;;;;11.80;10.80;;;20.50;95.80;;;;;;5013292;28;20050;-75
2023/06/28 02:45:07;;;;;;;11.50;10.40;;;20.50;95.90;;;;;;5012559;28;20084;-74
2023/06/28 02:47:33;;;;;;;10.73;9.73;;;20.50;95.90;;;;;;5013127;28;20395;-75
2023/06/28 02:50:05;;;;;;;10.77;9.88;;;20.50;96.00;;;;;;5012659;28;20052;-75
2023/06/28 02:52:34;;;;;;;10.90;10.00;;;20.50;96.00;;;;;;5011962;28;20510;-74
2023/06/28 02:55:00;;;;;;;10.68;9.70;;;20.60;96.00;;;;;;5012650;28;20026;-75
2023/06/28 02:57:26;;;;;;;11.05;10.05;;;20.60;96.00;;;;;;5012461;28;20038;-75
2023/06/28 02:59:52;;;;;;;10.63;9.68;;;20.50;96.00;;;;;;5012986;28;20046;-74
2023/06/28 03:02:19;;;;;;;10.07;9.13;;;20.50;96.00;;;;;;5011954;28;20491;-75
2023/06/28 03:04:45;;;;;;;10.98;9.52;;;20.40;96.00;;;;;;5012754;28;20042;-75
2023/06/28 03:07:17;;;;;;;9.90;9.00;;;20.30;95.80;;;;;;5012733;28;20041;-75
2023/06/28 03:09:43;;;;;;;10.68;9.48;;;20.30;96.00;;;;;;5012722;28;20041;-75
2023/06/28 03:12:10;;;;;;;10.50;9.52;;;20.20;96.10;;;;;;5012482;28;20491;-75
2023/06/28 03:14:36;;;;;;;10.77;9.65;;;20.10;96.20;;;;;;5012675;28;20030;-74
2023/06/28 03:17:03;;;;;;;10.70;9.85;;;20.20;96.40;;;;;;5025954;28;20041;-74
2023/06/28 03:19:29;;;;;;;13.95;10.77;;;20.10;96.30;;;;;;5032124;28;20037;-75
2023/06/28 03:21:55;;;;;;;12.10;10.95;;;19.90;96.30;;;;;;5017100;28;20418;-74
2023/06/28 03:24:22;;;;;;;10.80;9.73;;;19.90;96.40;;;;;;5011176;28;20053;-74
2023/06/28 03:26:48;;;;;;;10.52;9.50;;;19.80;96.50;;;;;;5012384;28;20025;-75
2023/06/28 03:29:14;;;;;;;10.70;9.77;;;19.80;96.60;;;;;;5012416;28;20034;-75
2023/06/28 03:31:40;;;;;;;11.57;10.48;;;19.70;96.90;;;;;;5011806;28;20034;-75
2023/06/28 03:34:06;;;;;;;10.43;9.40;;;19.60;97.00;;;;;;5012335;28;20022;-75
2023/06/28 03:36:34;;;;;;;10.40;9.57;;;19.50;97.30;;;;;;5010630;28;20040;-75
2023/06/28 03:39:00;;;;;;;13.50;9.77;;;19.40;97.60;;;;;;5012982;28;20045;-75
2023/06/28 03:41:27;;;;;;;10.13;9.18;;;19.40;97.80;;;;;;5012259;28;20467;-74
2023/06/28 03:43:53;;;;;;;11.05;9.52;;;19.30;98.20;;;;;;5010976;28;20053;-74
2023/06/28 03:46:19;;;;;;;10.38;9.18;;;19.30;98.10;;;;;;5011714;28;20034;-75
2023/06/28 03:48:45;;;;;;;10.43;9.30;;;19.30;98.10;;;;;;5012130;28;20399;-75
2023/06/28 03:51:11;;;;;;;10.27;9.27;;;19.30;98.30;;;;;;5011876;28;20049;-74
2023/06/28 03:53:37;;;;;;;9.90;8.98;;;19.30;98.50;;;;;;5012296;28;20022;-75
2023/06/28 03:56:04;;;;;;;11.70;10.43;;;19.30;98.50;;;;;;5011897;28;20030;-75
2023/06/28 03:58:30;;;;;;;10.65;9.68;;;19.20;98.80;;;;;;5012330;28;20022;-75
2023/06/28 04:00:56;;;;;;;10.38;9.48;;;19.30;98.80;;;;;;5004224;28;20510;-75
2023/06/28 04:03:22;;;;;;;14.23;12.95;;;19.30;98.90;;;;;;4994252;28;20053;-74
2023/06/28 04:05:48;;;;;;;12.75;11.45;;;19.30;99.10;;;;;;4995895;28;20506;-75
2023/06/28 04:08:14;;;;;;;16.85;15.48;;;19.30;99.30;;;;;;4996362;28;20103;-75
2023/06/28 04:10:42;;;;;;;20.45;18.63;;;19.30;99.40;;;;;;4995944;28;20411;-76
2023/06/28 04:13:08;;;;;;;23.42;21.52;;;19.30;99.20;;;;;;5011350;28;20037;-75
2023/06/28 04:15:34;;;;;;;18.63;17.13;;;19.30;99.30;;;;;;4995541;28;20491;-75
2023/06/28 04:18:00;;;;;;;19.13;17.63;;;19.30;99.50;;;;;;4996068;28;20041;-74
2023/06/28 04:20:26;;;;;;;19.65;18.05;;;19.30;99.70;;;;;;4995480;28;20034;-74
2023/06/28 04:22:53;;;;;;;18.15;16.33;;;19.20;99.70;;;;;;4996005;28;20050;-75
2023/06/28 04:25:19;;;;;;;18.73;17.30;;;18.90;99.90;;;;;;4995623;28;20034;-74
2023/06/28 04:27:45;;;;;;;17.13;15.65;;;18.70;99.90;;;;;;4994506;28;20045;-75
2023/06/28 04:30:11;;;;;;;16.60;15.32;;;18.80;99.90;;;;;;4995350;28;20488;-74
2023/06/28 04:32:37;;;;;;;13.95;12.52;;;18.90;99.90;;;;;;4995965;28;20023;-74
2023/06/28 04:35:03;;;;;;;14.25;13.02;;;19.00;99.90;;;;;;4995534;28;20038;-74
2023/06/28 04:37:31;;;;;;;15.63;14.02;;;19.10;99.90;;;;;;4995379;28;20031;-74
2023/06/28 04:39:58;;;;;;;14.73;13.40;;;19.10;99.90;;;;;;4995847;28;20097;-75
2023/06/28 04:42:24;;;;;;;15.50;14.05;;;19.10;99.90;;;;;;4995414;28;20037;-73
2023/06/28 04:44:50;;;;;;;15.13;13.85;;;19.10;99.90;;;;;;4995775;28;20051;-75
2023/06/28 04:47:17;;;;;;;13.55;12.15;;;18.90;99.90;;;;;;4994778;28;20038;-73
2023/06/28 04:49:46;;;;;;;12.98;11.77;;;18.80;99.90;;;;;;4995164;28;20069;-74
2023/06/28 04:52:13;;;;;;;12.65;11.55;;;18.70;99.90;;;;;;5010184;28;20050;-74
2023/06/28 04:54:42;;;;;;;11.75;10.75;;;18.70;99.90;;;;;;4995406;28;20029;-74
2023/06/28 04:57:08;;;;;;;12.02;10.93;;;18.50;99.90;;;;;;4993928;28;20046;-74
2023/06/28 04:59:34;;;;;;;11.10;10.20;;;18.40;99.90;;;;;;4995414;28;20031;-74
2023/06/28 05:02:03;;;;;;;12.32;10.90;;;18.50;99.90;;;;;;5009479;28;20540;-74
2023/06/28 05:04:32;;;;;;;12.00;10.70;;;18.60;99.90;;;;;;4995240;28;20380;-74
2023/06/28 05:07:04;;;;;;;12.40;11.07;;;18.90;99.90;;;;;;4995000;28;20026;-74
2023/06/28 05:09:31;;;;;;;17.15;12.10;;;19.00;99.90;;;;;;4995437;28;20026;-74
2023/06/28 05:11:57;;;;;;;14.43;13.13;;;19.00;99.90;;;;;;4994895;28;20038;-74
2023/06/28 05:14:25;;;;;;;13.52;12.20;;;19.20;99.90;;;;;;4994226;28;20022;-74
2023/06/28 05:16:51;;;;;;;12.88;11.57;;;19.10;99.90;;;;;;4994561;28;20041;-74
2023/06/28 05:19:18;;;;;;;12.38;11.35;;;19.10;99.90;;;;;;5009764;28;20360;-74
2023/06/28 05:21:44;;;;;;;12.68;11.50;;;19.00;99.90;;;;;;4994559;28;20037;-75
2023/06/28 05:24:10;;;;;;;13.80;11.90;;;19.00;99.90;;;;;;4994757;28;20034;-75
2023/06/28 05:26:36;;;;;;;12.35;11.07;;;19.10;99.90;;;;;;4994379;28;20051;-74
2023/06/28 05:29:03;;;;;;;12.40;11.30;;;19.10;99.90;;;;;;4994791;28;20482;-74
2023/06/28 05:31:29;;;;;;;12.95;11.52;;;19.20;99.90;;;;;;4994066;28;20395;-74
2023/06/28 05:33:55;;;;;;;13.88;11.60;;;19.30;99.90;;;;;;4994189;28;20033;-74
2023/06/28 05:36:22;;;;;;;12.77;11.40;;;19.30;99.90;;;;;;4994301;28;20026;-74
2023/06/28 05:38:48;;;;;;;12.32;11.13;;;19.30;99.90;;;;;;4994448;28;20042;-74
2023/06/28 05:41:16;;;;;;;12.88;11.27;;;19.20;99.90;;;;;;4994292;28;20035;-74
2023/06/28 05:43:42;;;;;;;14.27;12.68;;;19.40;99.90;;;;;;4994348;28;20365;-74
2023/06/28 05:46:08;;;;;;;20.75;11.90;;;19.60;99.90;;;;;;4993779;28;20042;-74
2023/06/28 05:48:34;;;;;;;17.77;13.57;;;19.50;99.90;;;;;;4993760;28;20508;-75
2023/06/28 05:51:01;;;;;;;15.25;13.80;;;19.60;99.90;;;;;;4994178;28;20034;-75
2023/06/28 05:53:27;;;;;;;19.67;17.92;;;19.70;99.90;;;;;;4994352;28;20391;-75
2023/06/28 05:55:53;;;;;;;21.83;19.90;;;19.80;99.90;;;;;;5009168;28;20030;-75
2023/06/28 05:58:19;;;;;;;21.50;20.02;;;19.90;99.90;;;;;;4994316;28;20413;-74
2023/06/28 06:00:45;;;;;;;19.58;17.88;;;19.80;99.90;;;;;;4993568;28;20035;-75
2023/06/28 06:03:11;;;;;;;20.30;18.40;;;19.80;99.90;;;;;;5008845;28;20377;-74
2023/06/28 06:05:37;;;;;;;21.85;19.27;;;19.70;99.90;;;;;;4993923;28;20042;-74
2023/06/28 06:08:04;;;;;;;20.67;18.77;;;19.80;99.90;;;;;;4994076;28;20622;-75
2023/06/28 06:10:30;;;;;;;20.80;19.00;;;19.80;99.90;;;;;;4992473;28;20050;-74
2023/06/28 06:12:56;;;;;;;18.55;16.88;;;19.90;99.90;;;;;;4993822;28;20034;-75
2023/06/28 06:15:23;;;;;;;18.33;16.60;;;20.00;99.90;;;;;;4993158;28;20420;-74
2023/06/28 06:17:50;;;;;;;15.63;13.15;;;19.90;99.90;;;;;;5008686;28;20031;-74
2023/06/28 06:20:16;;;;;;;14.85;12.68;;;20.20;99.90;;;;;;4993634;28;20030;-74
2023/06/28 06:22:43;;;;;;;10.98;8.38;;;20.20;99.90;;;;;;4993700;28;20403;-75
2023/06/28 06:25:09;;;;;;;10.05;9.00;;;20.30;99.90;;;;;;4993736;28;20478;-75
2023/06/28 06:27:35;;;;;;;11.43;9.98;;;20.30;99.90;;;;;;4993693;28;20391;-74
2023/06/28 06:30:02;;;;;;;18.38;11.82;;;20.30;99.90;;;;;;4993679;28;20029;-74
2023/06/28 06:32:28;;;;;;;12.05;11.02;;;20.40;99.90;;;;;;4992276;28;20049;-74
2023/06/28 06:34:57;;;;;;;10.77;9.05;;;20.40;99.90;;;;;;5008823;28;20042;-74
2023/06/28 06:37:27;;;;;;;12.23;9.32;;;20.60;99.90;;;;;;4993452;28;20126;-75
2023/06/28 06:39:56;;;;;;;15.45;9.80;;;20.70;99.90;;;;;;4993678;28;20037;-74
2023/06/28 06:42:22;;;;;;;11.20;9.60;;;20.70;99.90;;;;;;4993222;28;20034;-72
2023/06/28 06:44:48;;;;;;;10.40;9.45;;;20.70;99.90;;;;;;4993043;28;20037;-75
2023/06/28 06:47:14;;;;;;;14.52;9.40;;;20.80;99.90;;;;;;5009515;28;20038;-75
2023/06/28 06:49:40;;;;;;;13.15;9.32;;;20.80;99.90;;;;;;4993179;28;20494;-74
2023/06/28 06:52:06;;;;;;;11.48;9.45;;;20.90;99.90;;;;;;5007595;28;20034;-74
2023/06/28 06:54:32;;;;;;;12.50;9.02;;;21.00;99.90;;;;;;5012929;28;20029;-75
2023/06/28 06:56:59;;;;;;;14.07;9.43;;;21.10;99.90;;;;;;5012678;28;20429;-74
2023/06/28 06:59:26;;;;;;;11.20;9.35;;;21.10;99.90;;;;;;5012448;28;20046;-75
2023/06/28 07:01:52;;;;;;;17.35;9.93;;;21.20;99.90;;;;;;5012179;28;20037;-74
2023/06/28 07:04:19;;;;;;;11.43;10.15;;;21.40;99.90;;;;;;5012710;28;20045;-75
2023/06/28 07:06:46;;;;;;;14.35;12.98;;;21.60;99.90;;;;;;5012489;28;20025;-75
2023/06/28 07:09:16;;;;;;;16.30;14.82;;;21.70;99.90;;;;;;5012632;28;20505;-75
2023/06/28 07:11:42;;;;;;;17.83;16.38;;;21.70;99.90;;;;;;5012292;28;20487;-75
2023/06/28 07:14:08;;;;;;;19.98;18.48;;;21.90;99.90;;;;;;5012689;28;20049;-74
2023/06/28 07:16:35;;;;;;;20.42;18.40;;;21.90;99.90;;;;;;5011776;28;20041;-75
2023/06/28 07:19:02;;;;;;;20.15;18.48;;;21.80;99.90;;;;;;5011466;28;20041;-75
2023/06/28 07:21:28;;;;;;;20.63;19.02;;;21.80;99.90;;;;;;5012455;28;20061;-75
2023/06/28 07:23:55;;;;;;;20.00;16.13;;;21.90;99.90;;;;;;5012464;28;20034;-75
2023/06/28 07:26:22;;;;;;;21.80;19.85;;;22.00;99.90;;;;;;5012118;28;20394;-74
2023/06/28 07:28:49;;;;;;;18.77;17.08;;;22.10;99.90;;;;;;5027355;28;20061;-74
2023/06/28 07:31:15;;;;;;;19.58;17.67;;;22.30;99.90;;;;;;5026832;28;20038;-74
2023/06/28 07:33:41;;;;;;;21.50;19.77;;;22.50;99.90;;;;;;5012434;28;20038;-74
2023/06/28 07:36:07;;;;;;;21.20;19.60;;;22.50;99.90;;;;;;5005701;28;20030;-74
2023/06/28 07:38:34;;;;;;;20.60;19.02;;;22.80;99.80;;;;;;4995057;28;20041;-75
2023/06/28 07:41:00;;;;;;;20.27;18.58;;;22.80;99.70;;;;;;5015595;28;20045;-75
2023/06/28 07:43:26;;;;;;;19.35;17.83;;;22.90;99.30;;;;;;5015796;28;20041;-74
2023/06/28 07:45:52;;;;;;;21.98;19.38;;;23.00;99.50;;;;;;5015432;28;20030;-74
2023/06/28 07:48:19;;;;;;;20.30;18.70;;;23.00;98.90;;;;;;5007252;28;20392;-74
2023/06/28 07:50:47;;;;;;;21.75;20.15;;;22.90;98.40;;;;;;5001229;28;20053;-75
2023/06/28 07:53:13;;;;;;;23.80;21.90;;;22.90;98.80;;;;;;5016062;28;20475;-74
2023/06/28 07:55:39;;;;;;;23.67;21.70;;;23.10;98.70;;;;;;5016024;28;20033;-75
2023/06/28 07:58:05;;;;;;;24.30;22.13;;;23.20;98.40;;;;;;5015607;28;20053;-74
2023/06/28 08:00:31;;;;;;;23.38;21.58;;;23.30;98.50;;;;;;5015271;28;20036;-74
2023/06/28 08:02:58;;;;;;;25.75;23.98;;;23.30;98.40;;;;;;5015970;28;20057;-74
2023/06/28 08:05:25;;;;;;;22.08;20.10;;;23.50;98.80;;;;;;5030408;28;20058;-75
2023/06/28 08:07:53;;;;;;;19.95;18.45;;;23.70;98.00;;;;;;5015737;28;20034;-74
2023/06/28 08:10:20;;;;;;;20.65;18.65;;;23.70;97.70;;;;;;5015600;28;20033;-75
2023/06/28 08:12:46;;;;;;;21.58;20.00;;;23.60;97.50;;;;;;5015173;28;20502;-74
2023/06/28 08:15:12;;;;;;;21.75;19.58;;;23.70;98.30;;;;;;5014907;28;20034;-75
2023/06/28 08:17:38;;;;;;;20.23;18.50;;;23.90;97.20;;;;;;5015811;28;20498;-75
2023/06/28 08:20:05;;;;;;;19.17;17.60;;;23.80;97.00;;;;;;5015502;28;20049;-75
2023/06/28 08:22:31;;;;;;;19.85;18.15;;;23.70;97.10;;;;;;5015170;28;20026;-75
2023/06/28 08:24:57;;;;;;;19.95;18.17;;;23.60;97.40;;;;;;5015543;28;20053;-75
2023/06/28 08:27:23;;;;;;;19.45;17.75;;;23.80;97.60;;;;;;5014629;28;20676;-75
2023/06/28 08:29:49;;;;;;;18.60;17.30;;;23.90;97.70;;;;;;5015665;28;20038;-74
2023/06/28 08:32:16;;;;;;;19.55;18.08;;;24.00;97.20;;;;;;5014717;28;20395;-74
2023/06/28 08:34:42;;;;;;;22.35;20.55;;;24.10;97.20;;;;;;5015289;28;20038;-76
2023/06/28 08:37:08;;;;;;;20.45;18.67;;;24.30;96.90;;;;;;5000859;28;20042;-75
2023/06/28 08:39:36;;;;;;;21.10;19.40;;;24.30;96.90;;;;;;4996348;28;20038;-75
2023/06/28 08:42:02;;;;;;;20.25;18.75;;;24.30;96.30;;;;;;5010910;28;20057;-76
2023/06/28 08:44:31;;;;;;;20.65;19.15;;;24.40;96.10;;;;;;5015016;28;20044;-75
2023/06/28 08:46:57;;;;;;;20.38;19.00;;;24.50;96.60;;;;;;5014857;28;20034;-75
2023/06/28 08:49:23;;;;;;;25.90;23.30;;;24.60;95.90;;;;;;4995434;28;20063;-76
2023/06/28 08:51:49;;;;;;;23.35;21.58;;;24.70;95.70;;;;;;5008662;28;20037;-75
2023/06/28 08:54:15;;;;;;;21.73;19.98;;;24.70;95.70;;;;;;5030380;28;20030;-74
2023/06/28 08:56:41;;;;;;;27.25;24.98;;;24.80;96.10;;;;;;5029637;28;20033;-75
2023/06/28 08:59:08;;;;;;;23.13;21.02;;;25.00;95.90;;;;;;5015100;28;20422;-73
2023/06/28 09:01:35;;;;;;;26.55;24.67;;;24.90;95.40;;;;;;5014332;28;20034;-75
2023/06/28 09:04:03;;;;;;;22.73;21.13;;;24.90;94.80;;;;;;5014863;28;20046;-76
2023/06/28 09:06:29;;;;;;;26.50;24.42;;;24.90;95.50;;;;;;5029358;28;20048;-75
2023/06/28 09:08:55;;;;;;;30.30;28.23;;;24.90;95.20;;;;;;5015263;28;20038;-75
2023/06/28 09:11:21;;;;;;;32.35;30.40;;;25.10;95.10;;;;;;5029253;28;20052;-75
2023/06/28 09:13:48;;;;;;;34.15;31.73;;;25.40;95.10;;;;;;5014586;28;20034;-74
2023/06/28 09:16:14;;;;;;;35.58;33.15;;;25.70;94.30;;;;;;5029091;28;20494;-74
2023/06/28 09:18:40;;;;;;;34.35;32.00;;;26.00;94.20;;;;;;5014792;28;20041;-76
2023/06/28 09:21:06;;;;;;;34.05;31.85;;;25.90;93.60;;;;;;5014169;28;20030;-74
2023/06/28 09:23:34;;;;;;;34.47;32.38;;;25.70;94.00;;;;;;5014522;28;20060;-74
2023/06/28 09:26:00;;;;;;;34.17;31.58;;;26.00;94.60;;;;;;5013955;28;20063;-75
2023/06/28 09:28:33;;;;;;;28.23;25.77;;;26.10;93.00;;;;;;5014370;28;20041;-74
2023/06/28 09:30:59;;;;;;;33.95;31.90;;;26.20;94.30;;;;;;5014131;28;20034;-75
2023/06/28 09:33:26;;;;;;;33.60;31.33;;;26.50;93.60;;;;;;5014234;28;20033;-75
2023/06/28 09:35:55;;;;;;;34.00;32.00;;;26.40;92.70;;;;;;5005960;28;20031;-76
2023/06/28 09:38:22;;;;;;;32.97;30.60;;;26.20;92.40;;;;;;4975686;28;20061;-74
2023/06/28 09:40:58;;;;;;;31.27;29.17;;;26.30;92.90;;;;;;4985592;28;20479;-74
2023/06/28 09:43:28;;;;;;;33.10;30.90;;;26.40;93.30;;;;;;5013965;28;20034;-75
2023/06/28 09:45:54;;;;;;;34.10;32.08;;;26.60;93.40;;;;;;5013344;28;20046;-74
2023/06/28 09:48:24;;;;;;;33.17;30.95;;;26.90;93.20;;;;;;5003957;28;20030;-76
2023/06/28 09:50:50;;;;;;;33.08;31.05;;;26.80;91.70;;;;;;4999955;28;20049;-75
2023/06/28 09:53:19;;;;;;;35.00;32.90;;;26.40;91.70;;;;;;5013503;28;20033;-75
2023/06/28 09:55:46;;;;;;;35.13;32.92;;;26.30;91.90;;;;;;5013461;28;20038;-76
2023/06/28 09:58:14;;;;;;;34.15;31.30;;;26.50;92.80;;;;;;5013924;28;20029;-75
2023/06/28 10:00:41;;;;;;;34.33;32.20;;;26.60;92.10;;;;;;5012639;28;20042;-75
2023/06/28 10:03:08;;;;;;;36.50;34.10;;;26.80;91.50;;;;;;5013608;28;20371;-75
2023/06/28 10:05:36;;;;;;;34.88;32.47;;;26.60;91.00;;;;;;5013385;28;20033;-75
2023/06/28 10:08:07;;;;;;;36.03;34.03;;;26.70;91.90;;;;;;5013258;28;20026;-76
2023/06/28 10:10:36;;;;;;;34.58;32.42;;;26.90;91.80;;;;;;5013514;28;20054;-75
2023/06/28 10:13:03;;;;;;;37.90;35.53;;;27.10;91.90;;;;;;5013726;28;20483;-73
2023/06/28 10:15:39;;;;;;;34.58;32.30;;;27.20;90.70;;;;;;5027893;28;20288;-74
2023/06/28 10:18:06;;;;;;;34.33;32.17;;;27.00;90.90;;;;;;5012317;28;20029;-74
2023/06/28 10:20:32;;;;;;;34.28;31.98;;;27.20;91.30;;;;;;5013220;28;20033;-74
2023/06/28 10:22:58;;;;;;;35.35;33.22;;;27.40;90.80;;;;;;5028308;28;20037;-74
2023/06/28 10:25:25;;;;;;;34.83;32.83;;;27.60;91.40;;;;;;5028090;28;20042;-74
2023/06/28 10:27:52;;;;;;;36.72;34.45;;;27.40;90.00;;;;;;5028229;28;20044;-75
2023/06/28 10:30:19;;;;;;;36.83;34.65;;;27.30;90.20;;;;;;5011576;28;20403;-75
2023/06/28 10:32:45;;;;;;;36.55;34.35;;;27.40;90.10;;;;;;5028579;28;20037;-75
2023/06/28 10:35:11;;;;;;;41.75;39.25;;;27.40;90.30;;;;;;5012842;28;20030;-76
2023/06/28 10:37:38;;;;;;;41.25;38.80;;;27.40;88.90;;;;;;4976333;28;20046;-76
2023/06/28 10:40:05;;;;;;;43.92;41.22;;;27.40;88.30;;;;;;4974393;28;20119;-75
2023/06/28 10:42:39;;;;;;;42.35;39.85;;;27.30;88.10;;;;;;5010934;28;20625;-74
2023/06/28 10:45:05;;;;;;;44.60;41.88;;;27.40;90.40;;;;;;5012482;28;20049;-75
2023/06/28 10:47:33;;;;;;;44.17;41.38;;;27.60;88.40;;;;;;5009592;28;20026;-75
2023/06/28 10:50:14;;;;;;;41.92;39.10;;;27.70;88.00;;;;;;4993226;28;20430;-74
2023/06/28 10:52:54;;;;;;;42.35;39.95;;;27.80;88.30;;;;;;4992904;28;20197;-76
2023/06/28 10:55:20;;;;;;;39.77;37.63;;;27.60;87.00;;;;;;4994459;28;20026;-75
2023/06/28 10:57:58;;;;;;;43.33;40.80;;;27.50;88.40;;;;;;5012858;28;20363;-75
2023/06/28 11:00:49;;;;;;;45.30;42.80;;;27.70;89.10;;;;;;5025591;28;20634;-74
2023/06/28 11:03:15;;;;;;;47.30;44.67;;;28.00;88.40;;;;;;5011681;28;20038;-74
2023/06/28 11:05:55;;;;;;;52.55;49.20;;;28.10;87.30;;;;;;5012332;28;20049;-75
2023/06/28 11:08:22;;;;;;;50.30;47.40;;;28.00;86.20;;;;;;5012996;28;20030;-74
2023/06/28 11:10:53;;;;;;;48.45;45.50;;;27.90;86.60;;;;;;5027579;28;20045;-75
2023/06/28 11:13:38;;;;;;;51.65;48.28;;;28.00;86.60;;;;;;5011782;28;20049;-75
2023/06/28 11:16:12;;;;;;;47.28;44.60;;;28.10;88.40;;;;;;5011836;28;20038;-75
2023/06/28 11:18:38;;;;;;;54.38;51.10;;;28.40;88.40;;;;;;5012691;28;20038;-75
2023/06/28 11:21:05;;;;;;;72.03;67.85;;;28.60;87.90;;;;;;5011938;28;20501;-74
2023/06/28 11:23:40;;;;;;;65.30;61.67;;;28.90;86.20;;;;;;5012526;28;20494;-75
2023/06/28 11:26:10;;;;;;;54.33;51.42;;;29.10;86.60;;;;;;5012120;28;20052;-75
2023/06/28 11:28:37;;;;;;;85.05;80.53;;;29.20;87.10;;;;;;5027670;28;20026;-75
2023/06/28 11:31:15;;;;;;;71.82;67.82;;;29.30;84.20;;;;;;5011638;28;20042;-74
2023/06/28 11:33:42;;;;;;;67.68;63.85;;;28.90;83.70;;;;;;5012461;28;20022;-74
2023/06/28 11:36:08;;;;;;;60.38;57.15;;;28.80;84.10;;;;;;4999351;28;20027;-74
2023/06/28 11:38:35;;;;;;;71.35;67.65;;;29.00;86.10;;;;;;4973412;28;20031;-75
2023/06/28 11:41:01;;;;;;;80.22;76.00;;;29.20;86.10;;;;;;4987864;28;20041;-75
2023/06/28 11:43:27;;;;;;;78.13;73.93;;;29.40;85.10;;;;;;5012255;28;20022;-75
2023/06/28 11:45:53;;;;;;;95.47;90.68;;;29.60;84.80;;;;;;5011605;28;20053;-75
2023/06/28 11:48:23;;;;;;;98.40;92.95;;;29.70;83.00;;;;;;5002546;28;20058;-73
2023/06/28 11:51:15;;;;;;;98.28;93.05;;;29.80;82.30;;;;;;4996291;28;20034;-75
2023/06/28 11:53:46;;;;;;;99.00;93.97;;;29.90;80.80;;;;;;5012889;28;20034;-75
2023/06/28 11:56:12;;;;;;;107.80;102.22;;;29.90;80.40;;;;;;5011914;28;20030;-75
2023/06/28 11:58:38;;;;;;;71.65;67.85;;;29.80;80.30;;;;;;5012400;28;20427;-75
2023/06/28 12:01:07;;;;;;;79.95;75.80;;;29.40;82.50;;;;;;5011603;28;20038;-74
2023/06/28 12:03:37;;;;;;;75.95;71.55;;;29.50;82.70;;;;;;5027040;28;20034;-76
2023/06/28 12:06:09;;;;;;;73.78;69.68;;;29.20;81.90;;;;;;5011540;28;20034;-75
2023/06/28 12:08:40;;;;;;;75.47;71.43;;;29.00;82.80;;;;;;5012310;28;20041;-75
2023/06/28 12:11:11;;;;;;;73.22;69.25;;;29.10;82.20;;;;;;5011848;28;20076;-76
2023/06/28 12:13:38;;;;;;;78.78;74.20;;;29.20;82.80;;;;;;5012203;28;20030;-75
2023/06/28 12:16:12;;;;;;;72.45;68.43;;;29.30;82.30;;;;;;5011472;28;20042;-77
2023/06/28 12:18:54;;;;;;;65.03;61.30;;;28.90;81.30;;;;;;5011978;28;20501;-75
2023/06/28 12:21:21;;;;;;;64.65;61.05;;;28.60;82.50;;;;;;5011882;28;20065;-75
2023/06/28 12:23:48;;;;;;;55.65;52.63;;;28.70;82.10;;;;;;5012696;28;20149;-75
2023/06/28 12:26:15;;;;;;;58.53;55.15;;;28.50;82.00;;;;;;5030703;28;20029;-76
2023/06/28 12:28:42;;;;;;;50.83;47.90;;;28.50;82.30;;;;;;5015625;28;20029;-76